createdAt,value
2023-02-19T00:00:37.135Z,13.00
2023-02-19T00:03:41.031Z,13.10
2023-02-19T00:06:46.729Z,13.20
2023-02-19T00:09:49.638Z,13.00
2023-02-19T00:12:52.775Z,13.00
2023-02-19T00:15:56.349Z,13.00
2023-02-19T00:19:00.760Z,13.10
2023-02-19T00:22:04.981Z,13.00
2023-02-19T00:25:08.023Z,13.10
2023-02-19T00:28:10.893Z,13.20
2023-02-19T00:31:18.571Z,13.10
2023-02-19T00:34:21.499Z,13.10
2023-02-19T00:37:25.794Z,13.10
2023-02-19T00:40:28.932Z,13.00
2023-02-19T00:43:31.774Z,12.90
2023-02-19T00:46:36.752Z,13.00
2023-02-19T00:49:39.690Z,12.90
2023-02-19T00:52:43.985Z,12.80
2023-02-19T00:55:47.017Z,12.80
2023-02-19T00:58:50.451Z,12.90
2023-02-19T01:01:53.395Z,13.00
2023-02-19T01:04:56.341Z,12.80
2023-02-19T01:08:00.574Z,12.80
2023-02-19T01:11:05.068Z,12.80
2023-02-19T01:14:07.985Z,12.80
2023-02-19T01:17:10.855Z,12.90
2023-02-19T01:20:13.809Z,12.80
2023-02-19T01:23:18.151Z,12.80
2023-02-19T01:26:22.655Z,12.90
2023-02-19T01:29:25.750Z,12.90
2023-02-19T01:32:28.903Z,12.80
2023-02-19T01:35:31.867Z,12.90
2023-02-19T01:38:36.081Z,12.80
2023-02-19T01:41:41.130Z,12.90
2023-02-19T01:45:24.942Z,12.90
2023-02-19T01:48:31.812Z,13.00
2023-02-19T01:51:36.968Z,12.80
2023-02-19T01:54:43.349Z,12.70
2023-02-19T01:57:50.517Z,12.70
2023-02-19T02:00:53.562Z,12.70
2023-02-19T02:03:56.711Z,12.70
2023-02-19T02:07:03.363Z,12.60
2023-02-19T02:10:22.375Z,12.60
2023-02-19T02:13:25.350Z,12.80
2023-02-19T02:16:35.954Z,12.70
2023-02-19T02:19:57.547Z,12.60
2023-02-19T02:23:09.793Z,12.60
2023-02-19T02:26:36.566Z,12.40
2023-02-19T02:30:10.971Z,12.30
2023-02-19T02:33:21.001Z,12.30
2023-02-19T02:36:28.833Z,12.40
2023-02-19T02:39:32.657Z,12.40
2023-02-19T02:42:36.131Z,12.40
2023-02-19T02:45:40.673Z,12.20
2023-02-19T02:48:46.608Z,12.30
2023-02-19T02:51:53.560Z,12.20
2023-02-19T02:55:04.665Z,12.00
2023-02-19T02:58:08.644Z,11.90
2023-02-19T03:01:34.875Z,11.90
2023-02-19T03:05:00.127Z,12.00
2023-02-19T03:08:10.846Z,11.80
2023-02-19T03:11:31.832Z,11.70
2023-02-19T03:14:57.097Z,11.70
2023-02-19T03:18:21.832Z,11.80
2023-02-19T03:21:26.780Z,11.70
2023-02-19T03:24:50.908Z,11.60
2023-02-19T03:27:57.213Z,11.60
2023-02-19T03:31:00.264Z,11.60
2023-02-19T03:34:09.527Z,11.60
2023-02-19T03:37:15.926Z,11.40
2023-02-19T03:40:19.166Z,11.30
2023-02-19T03:43:25.717Z,11.20
2023-02-19T03:46:38.772Z,11.20
2023-02-19T03:49:48.959Z,11.10
2023-02-19T03:53:00.265Z,11.10
2023-02-19T03:56:11.883Z,11.10
2023-02-19T03:59:20.007Z,11.10
2023-02-19T04:02:30.135Z,11.00
2023-02-19T04:05:39.809Z,10.80
2023-02-19T04:08:46.763Z,10.70
2023-02-19T04:11:51.009Z,10.60
2023-02-19T04:15:00.717Z,10.60
2023-02-19T04:18:07.958Z,10.50
2023-02-19T04:21:12.684Z,10.60
2023-02-19T04:24:22.872Z,10.70
2023-02-19T04:27:25.740Z,10.60
2023-02-19T04:30:28.786Z,10.50
2023-02-19T04:33:31.727Z,10.50
2023-02-19T04:36:35.950Z,10.60
2023-02-19T04:39:38.840Z,10.60
2023-02-19T04:42:41.713Z,10.60
2023-02-19T04:45:44.575Z,10.70
2023-02-19T04:48:47.446Z,10.60
2023-02-19T04:51:52.194Z,10.70
2023-02-19T04:54:55.072Z,10.60
2023-02-19T04:57:57.965Z,10.60
2023-02-19T05:01:00.800Z,10.70
2023-02-19T05:04:05.276Z,10.60
2023-02-19T05:07:09.514Z,10.60
2023-02-19T05:10:12.398Z,10.60
2023-02-19T05:13:15.283Z,10.70
2023-02-19T05:16:18.313Z,10.60
2023-02-19T05:19:21.237Z,10.70
2023-02-19T05:22:25.423Z,10.70
2023-02-19T05:25:28.279Z,10.70
2023-02-19T05:28:31.182Z,10.70
2023-02-19T05:31:34.610Z,10.80
2023-02-19T05:34:37.528Z,10.70
2023-02-19T05:37:41.723Z,10.80
2023-02-19T05:40:44.893Z,10.80
2023-02-19T05:43:48.993Z,10.80
2023-02-19T05:46:51.881Z,10.70
2023-02-19T05:49:54.735Z,10.70
2023-02-19T05:53:00.887Z,10.80
2023-02-19T05:56:03.913Z,10.80
2023-02-19T05:59:08.409Z,10.90
2023-02-19T06:02:11.446Z,10.80
2023-02-19T06:05:14.767Z,10.70
2023-02-19T06:08:19.125Z,10.80
2023-02-19T06:11:22.284Z,10.80
2023-02-19T06:14:25.327Z,10.70
2023-02-19T06:17:28.178Z,10.60
2023-02-19T06:20:31.294Z,10.60
2023-02-19T06:23:36.070Z,10.70
2023-02-19T06:26:39.728Z,10.80
2023-02-19T06:29:42.608Z,10.90
2023-02-19T06:32:45.500Z,10.80
2023-02-19T06:35:48.367Z,10.80
2023-02-19T06:38:52.743Z,10.90
2023-02-19T06:41:56.495Z,10.70
2023-02-19T06:44:59.365Z,10.80
2023-02-19T06:48:02.225Z,10.80
2023-02-19T06:51:05.490Z,10.70
2023-02-19T06:54:09.759Z,10.70
2023-02-19T06:57:12.610Z,10.70
2023-02-19T07:00:16.113Z,10.70
2023-02-19T07:03:18.960Z,10.80
2023-02-19T07:06:23.377Z,10.90
2023-02-19T07:09:28.547Z,10.80
2023-02-19T07:12:31.417Z,10.80
2023-02-19T07:15:34.339Z,10.80
2023-02-19T07:18:37.624Z,10.90
2023-02-19T07:21:41.419Z,10.90
2023-02-19T07:24:47.786Z,10.90
2023-02-19T07:27:50.810Z,10.90
2023-02-19T07:30:53.886Z,10.90
2023-02-19T07:33:56.787Z,10.90
2023-02-19T07:36:59.652Z,10.90
2023-02-19T07:40:04.580Z,11.00
2023-02-19T07:43:07.420Z,11.10
2023-02-19T07:46:12.369Z,11.10
2023-02-19T07:49:15.248Z,11.10
2023-02-19T07:52:18.605Z,11.10
2023-02-19T07:55:22.832Z,11.10
2023-02-19T07:58:25.683Z,11.20
2023-02-19T08:01:42.498Z,11.10
2023-02-19T08:04:45.769Z,11.10
2023-02-19T08:07:48.630Z,11.20
2023-02-19T08:11:10.529Z,11.30
2023-02-19T08:14:13.552Z,11.30
2023-02-19T08:17:16.465Z,11.20
2023-02-19T08:20:19.381Z,11.10
2023-02-19T08:23:22.708Z,11.20
2023-02-19T08:26:26.926Z,11.30
2023-02-19T08:29:29.767Z,11.20
2023-02-19T08:32:33.040Z,11.20
2023-02-19T08:35:36.800Z,11.20
2023-02-19T08:38:39.838Z,11.30
2023-02-19T08:41:44.330Z,11.30
2023-02-19T08:44:47.167Z,11.30
2023-02-19T08:47:50.023Z,11.30
2023-02-19T08:50:57.390Z,11.10
2023-02-19T08:54:02.844Z,11.20
2023-02-19T08:57:07.321Z,11.10
2023-02-19T09:00:13.557Z,11.10
2023-02-19T09:03:16.504Z,11.00
2023-02-19T09:06:21.838Z,11.10
2023-02-19T09:09:24.700Z,11.10
2023-02-19T09:12:28.989Z,11.10
2023-02-19T09:15:33.396Z,11.10
2023-02-19T09:18:36.526Z,11.10
2023-02-19T09:21:39.405Z,11.10
2023-02-19T09:24:43.404Z,11.00
2023-02-19T09:27:47.636Z,10.90
2023-02-19T09:30:50.505Z,10.90
2023-02-19T09:33:53.387Z,11.00
2023-02-19T09:36:56.682Z,10.80
2023-02-19T09:39:59.532Z,10.70
2023-02-19T09:43:06.923Z,10.70
2023-02-19T09:46:19.819Z,10.60
2023-02-19T09:49:29.483Z,10.60
2023-02-19T09:52:37.887Z,10.50
2023-02-19T09:55:42.958Z,10.50
2023-02-19T09:58:50.758Z,10.60
2023-02-19T10:02:00.565Z,10.80
2023-02-19T10:05:05.114Z,10.80
2023-02-19T10:08:13.770Z,11.00
2023-02-19T10:11:16.968Z,11.10
2023-02-19T10:14:28.653Z,11.40
2023-02-19T10:17:34.653Z,11.70
2023-02-19T10:20:37.593Z,11.90
2023-02-19T10:23:42.021Z,12.10
2023-02-19T10:26:44.880Z,12.10
2023-02-19T10:29:51.152Z,12.20
2023-02-19T10:33:03.224Z,12.20
2023-02-19T10:36:08.208Z,12.40
2023-02-19T10:39:35.519Z,12.60
2023-02-19T10:42:47.480Z,12.90
2023-02-19T10:45:52.937Z,13.00
2023-02-19T10:48:59.246Z,12.80
2023-02-19T10:52:17.426Z,12.90
2023-02-19T10:55:35.158Z,12.90
2023-02-19T10:58:42.313Z,13.00
2023-02-19T11:01:59.811Z,13.20
2023-02-19T11:05:20.863Z,13.40
2023-02-19T11:08:25.246Z,13.50
2023-02-19T11:11:36.674Z,13.40
2023-02-19T11:14:43.540Z,13.30
2023-02-19T11:17:56.626Z,13.10
2023-02-19T11:21:01.758Z,13.10
2023-02-19T11:24:05.236Z,13.10
2023-02-19T11:27:19.323Z,13.10
2023-02-19T11:30:36.538Z,13.20
2023-02-19T11:33:45.563Z,13.30
2023-02-19T11:37:08.224Z,13.30
2023-02-19T11:40:13.627Z,13.00
2023-02-19T11:43:37.770Z,12.80
2023-02-19T11:46:54.714Z,12.60
2023-02-19T11:50:06.071Z,12.50
2023-02-19T11:53:17.825Z,12.50
2023-02-19T11:56:24.782Z,12.40
2023-02-19T11:59:34.798Z,12.30
2023-02-19T12:03:02.911Z,12.40
2023-02-19T12:06:20.196Z,12.50
2023-02-19T12:09:48.791Z,12.50
2023-02-19T12:13:05.237Z,12.40
2023-02-19T12:16:19.180Z,12.40
2023-02-19T12:19:39.255Z,12.40
2023-02-19T12:22:51.099Z,12.40
2023-02-19T12:26:02.099Z,12.50
2023-02-19T12:29:24.880Z,12.70
2023-02-19T12:32:58.119Z,12.70
2023-02-19T12:36:13.397Z,12.70
2023-02-19T12:39:25.644Z,12.40
2023-02-19T12:42:43.738Z,12.00
2023-02-19T12:45:52.235Z,12.00
2023-02-19T12:49:00.169Z,12.00
2023-02-19T12:52:07.839Z,11.90
2023-02-19T12:55:22.858Z,11.90
2023-02-19T12:58:31.481Z,11.80
2023-02-19T13:01:41.624Z,11.80
2023-02-19T13:04:50.799Z,11.70
2023-02-19T13:08:00.259Z,11.80
2023-02-19T13:11:10.314Z,11.90
2023-02-19T13:14:22.732Z,11.60
2023-02-19T13:17:30.040Z,11.80
2023-02-19T13:20:36.238Z,11.80
2023-02-19T13:24:00.049Z,11.90
2023-02-19T13:27:24.197Z,11.90
2023-02-19T13:30:41.477Z,12.10
2023-02-19T13:33:54.800Z,12.00
2023-02-19T13:36:58.129Z,11.90
2023-02-19T13:40:05.611Z,12.00
2023-02-19T13:43:24.936Z,12.00
2023-02-19T13:46:36.959Z,12.20
2023-02-19T13:49:43.140Z,12.20
2023-02-19T13:52:46.036Z,12.10
2023-02-19T13:55:53.615Z,12.00
2023-02-19T13:59:01.442Z,12.00
2023-02-19T14:02:13.473Z,11.90
2023-02-19T14:05:54.858Z,11.90
2023-02-19T14:09:00.366Z,11.90
2023-02-19T14:12:06.286Z,11.90
2023-02-19T14:15:45.225Z,11.90
2023-02-19T14:18:50.382Z,11.90
2023-02-19T14:21:53.248Z,11.80
2023-02-19T14:24:56.821Z,11.70
2023-02-19T14:28:03.433Z,11.60
2023-02-19T14:31:20.826Z,11.60
2023-02-19T14:34:27.129Z,11.60
2023-02-19T14:37:30.091Z,11.60
2023-02-19T14:40:36.710Z,11.60
2023-02-19T14:43:40.475Z,11.60
2023-02-19T14:46:51.178Z,11.60
2023-02-19T14:49:59.606Z,11.60
2023-02-19T14:53:05.448Z,11.40
2023-02-19T14:56:21.156Z,11.40
2023-02-19T14:59:26.893Z,11.50
2023-02-19T15:02:32.909Z,11.60
2023-02-19T15:05:37.779Z,11.60
2023-02-19T15:08:44.963Z,11.70
2023-02-19T15:11:48.066Z,11.70
2023-02-19T15:14:54.027Z,11.80
2023-02-19T15:17:59.860Z,11.70
2023-02-19T15:21:05.665Z,11.80
2023-02-19T15:24:08.982Z,11.70
2023-02-19T15:27:18.970Z,11.60
2023-02-19T15:30:24.551Z,11.70
2023-02-19T15:33:29.541Z,11.60
2023-02-19T15:36:35.323Z,11.50
2023-02-19T15:39:41.125Z,11.50
2023-02-19T15:42:47.217Z,11.60
2023-02-19T15:45:53.373Z,11.60
2023-02-19T15:49:04.810Z,11.80
2023-02-19T15:52:11.843Z,11.70
2023-02-19T15:55:26.853Z,11.90
2023-02-19T15:58:33.945Z,12.00
2023-02-19T16:01:38.677Z,12.00
2023-02-19T16:04:45.142Z,11.90
2023-02-19T16:07:48.016Z,11.80
2023-02-19T16:10:56.864Z,11.80
2023-02-19T16:14:23.233Z,11.60
2023-02-19T16:17:28.047Z,11.60
2023-02-19T16:20:35.610Z,11.70
2023-02-19T16:23:43.083Z,11.80
2023-02-19T16:26:46.601Z,11.80
2023-02-19T16:29:52.505Z,11.90
2023-02-19T16:33:28.870Z,11.90
2023-02-19T16:36:41.665Z,11.80
2023-02-19T16:39:44.887Z,11.90
2023-02-19T16:43:25.582Z,11.80
2023-02-19T16:46:28.402Z,11.60
2023-02-19T16:49:31.789Z,11.60
2023-02-19T16:52:39.014Z,11.50
2023-02-19T16:55:41.860Z,11.50
2023-02-19T16:58:44.790Z,11.50
2023-02-19T17:01:47.694Z,11.50
2023-02-19T17:04:51.801Z,11.40
2023-02-19T17:07:56.021Z,11.50
2023-02-19T17:10:59.312Z,11.40
2023-02-19T17:14:02.288Z,11.30
2023-02-19T17:17:06.260Z,11.40
2023-02-19T17:20:21.808Z,11.40
2023-02-19T17:23:26.012Z,11.50
2023-02-19T17:26:30.997Z,11.50
2023-02-19T17:29:34.077Z,11.50
2023-02-19T17:32:36.944Z,11.50
2023-02-19T17:35:40.133Z,11.50
2023-02-19T17:38:44.367Z,11.40
2023-02-19T17:41:47.202Z,11.40
2023-02-19T17:44:51.868Z,11.40
2023-02-19T17:47:54.753Z,11.40
2023-02-19T17:50:58.011Z,11.30
2023-02-19T17:54:02.391Z,11.30
2023-02-19T17:57:05.420Z,11.20
2023-02-19T18:00:09.371Z,11.10
2023-02-19T18:03:12.233Z,11.10
2023-02-19T18:06:15.511Z,11.00
2023-02-19T18:09:22.327Z,10.90
2023-02-19T18:12:25.792Z,11.00
2023-02-19T18:15:28.705Z,11.10
2023-02-19T18:18:31.550Z,11.10
2023-02-19T18:21:34.403Z,11.20
2023-02-19T18:24:38.615Z,11.20
2023-02-19T18:27:41.472Z,11.00
2023-02-19T18:30:44.434Z,11.00
2023-02-19T18:33:47.391Z,11.10
2023-02-19T18:36:50.899Z,11.00
2023-02-19T18:39:55.090Z,11.00
2023-02-19T18:42:58.638Z,11.10
2023-02-19T18:46:02.004Z,11.10
2023-02-19T18:49:05.013Z,11.10
2023-02-19T18:52:08.051Z,11.10
2023-02-19T18:55:13.227Z,11.00
2023-02-19T18:58:16.062Z,11.10
2023-02-19T19:01:18.927Z,11.10
2023-02-19T19:04:21.901Z,11.20
2023-02-19T19:07:24.792Z,11.20
2023-02-19T19:10:29.124Z,11.20
2023-02-19T19:13:31.961Z,11.10
2023-02-19T19:16:34.935Z,11.10
2023-02-19T19:19:37.804Z,11.10
2023-02-19T19:22:40.686Z,11.20
2023-02-19T19:25:45.053Z,11.10
2023-02-19T19:28:47.893Z,11.10
2023-02-19T19:31:51.141Z,11.10
2023-02-19T19:34:54.084Z,11.10
2023-02-19T19:37:56.973Z,11.00
2023-02-19T19:41:01.202Z,10.90
2023-02-19T19:44:05.380Z,10.90
2023-02-19T19:47:08.237Z,10.80
2023-02-19T19:50:12.119Z,10.90
2023-02-19T19:53:15.281Z,10.90
2023-02-19T19:56:19.575Z,11.00
2023-02-19T19:59:23.075Z,10.90
2023-02-19T20:02:25.999Z,10.90
2023-02-19T20:05:28.928Z,10.90
2023-02-19T20:08:31.775Z,11.00
2023-02-19T20:11:36.007Z,11.00
2023-02-19T20:14:38.831Z,11.10
2023-02-19T20:17:41.678Z,11.20
2023-02-19T20:20:44.572Z,11.20
2023-02-19T20:23:47.405Z,11.20
2023-02-19T20:26:51.906Z,11.10
2023-02-19T20:29:54.748Z,11.00
2023-02-19T20:32:57.625Z,11.10
2023-02-19T20:36:01.819Z,11.00
2023-02-19T20:39:04.824Z,11.10
2023-02-19T20:42:09.009Z,11.00
2023-02-19T20:45:11.900Z,11.00
2023-02-19T20:48:16.600Z,11.00
2023-02-19T20:51:19.558Z,11.00
2023-02-19T20:54:24.713Z,11.00
2023-02-19T20:57:28.919Z,11.00
2023-02-19T21:00:31.823Z,10.90
2023-02-19T21:03:34.749Z,10.90
2023-02-19T21:06:37.723Z,10.80
2023-02-19T21:09:40.629Z,10.70
2023-02-19T21:12:44.822Z,10.60
2023-02-19T21:15:47.801Z,10.50
2023-02-19T21:18:50.732Z,10.50
2023-02-19T21:21:53.658Z,10.50
2023-02-19T21:24:56.491Z,10.60
2023-02-19T21:28:00.754Z,10.50
2023-02-19T21:31:03.729Z,10.50
2023-02-19T21:34:07.044Z,10.60
2023-02-19T21:37:09.910Z,10.60
2023-02-19T21:40:13.856Z,10.60
2023-02-19T21:43:18.080Z,10.70
2023-02-19T21:46:21.414Z,10.70
2023-02-19T21:49:24.286Z,10.70
2023-02-19T21:52:27.173Z,10.50
2023-02-19T21:55:30.016Z,10.50
2023-02-19T21:58:34.245Z,10.50
2023-02-19T22:01:39.529Z,10.50
2023-02-19T22:04:42.462Z,10.60
2023-02-19T22:07:45.307Z,10.60
2023-02-19T22:10:48.357Z,10.60
2023-02-19T22:13:52.747Z,10.60
2023-02-19T22:16:55.607Z,10.50
2023-02-19T22:19:58.468Z,10.60
2023-02-19T22:23:01.762Z,10.60
2023-02-19T22:26:04.712Z,10.50
2023-02-19T22:29:08.994Z,10.40
2023-02-19T22:32:11.963Z,10.20
2023-02-19T22:35:15.886Z,10.30
2023-02-19T22:38:18.984Z,10.40
2023-02-19T22:41:22.435Z,10.40
2023-02-19T22:44:26.714Z,10.40
2023-02-19T22:47:29.686Z,10.50
2023-02-19T22:50:32.521Z,10.50
2023-02-19T22:53:35.378Z,10.40
2023-02-19T22:56:38.233Z,10.40
2023-02-19T22:59:42.579Z,10.40
2023-02-19T23:02:46.782Z,10.50
2023-02-19T23:05:49.618Z,10.60
2023-02-19T23:08:53.420Z,10.50
2023-02-19T23:12:03.045Z,10.50
2023-02-19T23:15:09.111Z,10.40
2023-02-19T23:18:11.994Z,10.40
2023-02-19T23:21:14.890Z,10.40
2023-02-19T23:24:17.984Z,10.50
2023-02-19T23:27:21.177Z,10.50
2023-02-19T23:30:26.120Z,10.40
2023-02-19T23:33:29.030Z,10.40
2023-02-19T23:36:31.891Z,10.50
2023-02-19T23:39:34.801Z,10.40
2023-02-19T23:42:37.665Z,10.40
2023-02-19T23:45:41.897Z,10.40
2023-02-19T23:48:45.494Z,10.30
2023-02-19T23:51:48.478Z,10.30
2023-02-19T23:54:51.374Z,10.40
2023-02-19T23:57:54.250Z,10.40
